sensor_id;sensor_type;location;lat;lon;timestamp;pressure;altitude;pressure_sealevel;temperature;humidity
41947;BME280;27638;42.184;24.848;2023-01-27T00:00:18;99138.56;;;3.40;100.00
41947;BME280;27638;42.184;24.848;2023-01-27T00:02:44;99141.88;;;3.42;100.00
41947;BME280;27638;42.184;24.848;2023-01-27T00:05:11;99154.94;;;3.42;100.00
41947;BME280;27638;42.184;24.848;2023-01-27T00:07:37;99159.78;;;3.46;100.00
41947;BME280;27638;42.184;24.848;2023-01-27T00:10:04;99161.75;;;3.54;100.00
41947;BME280;27638;42.184;24.848;2023-01-27T00:12:30;99165.63;;;3.60;100.00
41947;BME280;27638;42.184;24.848;2023-01-27T00:15:14;99166.84;;;3.56;100.00
41947;BME280;27638;42.184;24.848;2023-01-27T00:17:40;99175.88;;;3.42;100.00
41947;BME280;27638;42.184;24.848;2023-01-27T00:20:06;99170.47;;;3.34;100.00
41947;BME280;27638;42.184;24.848;2023-01-27T00:22:32;99172.38;;;3.32;100.00
41947;BME280;27638;42.184;24.848;2023-01-27T00:25:16;99161.75;;;3.24;100.00
41947;BME280;27638;42.184;24.848;2023-01-27T00:27:42;99147.56;;;3.26;100.00
41947;BME280;27638;42.184;24.848;2023-01-27T00:30:08;99155.72;;;3.33;100.00
41947;BME280;27638;42.184;24.848;2023-01-27T00:32:34;99154.22;;;3.30;100.00
41947;BME280;27638;42.184;24.848;2023-01-27T00:35:18;99132.84;;;3.25;100.00
41947;BME280;27638;42.184;24.848;2023-01-27T00:37:44;99129.00;;;3.29;100.00
41947;BME280;27638;42.184;24.848;2023-01-27T00:40:14;99129.00;;;3.29;100.00
41947;BME280;27638;42.184;24.848;2023-01-27T00:42:40;99135.94;;;3.40;100.00
41947;BME280;27638;42.184;24.848;2023-01-27T00:45:06;99131.22;;;3.34;100.00
41947;BME280;27638;42.184;24.848;2023-01-27T00:47:51;99127.25;;;3.39;100.00
41947;BME280;27638;42.184;24.848;2023-01-27T00:50:17;99144.66;;;3.50;100.00
41947;BME280;27638;42.184;24.848;2023-01-27T00:52:43;99149.22;;;3.58;100.00
41947;BME280;27638;42.184;24.848;2023-01-27T00:55:09;99145.66;;;3.59;100.00
41947;BME280;27638;42.184;24.848;2023-01-27T00:57:36;99143.63;;;3.72;100.00
41947;BME280;27638;42.184;24.848;2023-01-27T01:00:03;99137.84;;;3.78;100.00
41947;BME280;27638;42.184;24.848;2023-01-27T01:02:28;99132.50;;;3.89;100.00
41947;BME280;27638;42.184;24.848;2023-01-27T01:04:54;99113.34;;;3.89;100.00
41947;BME280;27638;42.184;24.848;2023-01-27T01:07:19;99082.59;;;3.91;100.00
41947;BME280;27638;42.184;24.848;2023-01-27T01:09:45;99076.13;;;4.04;100.00
41947;BME280;27638;42.184;24.848;2023-01-27T01:12:10;99063.59;;;3.98;100.00
41947;BME280;27638;42.184;24.848;2023-01-27T01:14:36;99046.75;;;3.72;100.00
41947;BME280;27638;42.184;24.848;2023-01-27T01:17:01;99057.09;;;3.73;100.00
41947;BME280;27638;42.184;24.848;2023-01-27T01:19:29;99065.91;;;3.72;100.00
41947;BME280;27638;42.184;24.848;2023-01-27T01:21:54;99095.66;;;3.71;100.00
41947;BME280;27638;42.184;24.848;2023-01-27T01:24:20;99094.97;;;3.69;100.00
41947;BME280;27638;42.184;24.848;2023-01-27T01:26:45;99081.47;;;3.74;100.00
41947;BME280;27638;42.184;24.848;2023-01-27T01:29:10;99114.81;;;3.72;100.00
41947;BME280;27638;42.184;24.848;2023-01-27T01:31:36;99136.69;;;3.61;100.00
41947;BME280;27638;42.184;24.848;2023-01-27T01:34:01;99138.75;;;3.58;100.00
41947;BME280;27638;42.184;24.848;2023-01-27T01:36:27;99140.41;;;3.59;100.00
41947;BME280;27638;42.184;24.848;2023-01-27T01:38:56;99143.59;;;3.62;100.00
41947;BME280;27638;42.184;24.848;2023-01-27T01:41:22;99128.88;;;3.71;100.00
41947;BME280;27638;42.184;24.848;2023-01-27T01:43:49;99102.84;;;3.79;100.00
41947;BME280;27638;42.184;24.848;2023-01-27T01:46:14;99088.94;;;3.88;100.00
41947;BME280;27638;42.184;24.848;2023-01-27T01:48:50;99077.78;;;3.86;100.00
41947;BME280;27638;42.184;24.848;2023-01-27T01:51:23;99084.94;;;3.84;100.00
41947;BME280;27638;42.184;24.848;2023-01-27T01:54:07;99069.78;;;3.78;100.00
41947;BME280;27638;42.184;24.848;2023-01-27T01:56:42;99064.09;;;3.73;100.00
41947;BME280;27638;42.184;24.848;2023-01-27T02:02:21;99058.59;;;3.66;100.00
41947;BME280;27638;42.184;24.848;2023-01-27T02:05:09;99045.91;;;3.62;100.00
41947;BME280;27638;42.184;24.848;2023-01-27T02:07:56;99045.91;;;3.62;100.00
41947;BME280;27638;42.184;24.848;2023-01-27T02:10:24;99057.06;;;3.64;100.00
41947;BME280;27638;42.184;24.848;2023-01-27T02:12:50;99070.31;;;3.72;100.00
41947;BME280;27638;42.184;24.848;2023-01-27T02:15:16;99047.72;;;3.71;100.00
41947;BME280;27638;42.184;24.848;2023-01-27T02:17:42;99044.13;;;3.72;100.00
41947;BME280;27638;42.184;24.848;2023-01-27T02:20:17;99045.22;;;3.69;100.00
41947;BME280;27638;42.184;24.848;2023-01-27T02:28:06;99024.69;;;3.74;100.00
41947;BME280;27638;42.184;24.848;2023-01-27T02:30:32;99006.38;;;3.84;100.00
41947;BME280;27638;42.184;24.848;2023-01-27T02:32:58;99001.97;;;3.94;100.00
41947;BME280;27638;42.184;24.848;2023-01-27T02:37:55;98997.28;;;3.88;100.00
41947;BME280;27638;42.184;24.848;2023-01-27T02:40:22;99021.25;;;3.83;100.00
41947;BME280;27638;42.184;24.848;2023-01-27T02:42:49;99039.59;;;3.83;100.00
41947;BME280;27638;42.184;24.848;2023-01-27T02:45:15;99028.56;;;3.90;100.00
41947;BME280;27638;42.184;24.848;2023-01-27T02:47:40;99015.47;;;3.90;100.00
41947;BME280;27638;42.184;24.848;2023-01-27T02:50:06;99017.41;;;3.88;100.00
41947;BME280;27638;42.184;24.848;2023-01-27T02:52:32;99023.19;;;3.81;100.00
41947;BME280;27638;42.184;24.848;2023-01-27T02:54:57;99032.84;;;3.81;100.00
41947;BME280;27638;42.184;24.848;2023-01-27T02:57:22;99027.19;;;3.85;100.00
41947;BME280;27638;42.184;24.848;2023-01-27T02:59:48;99022.63;;;3.97;100.00
41947;BME280;27638;42.184;24.848;2023-01-27T03:02:13;99021.69;;;3.98;100.00
41947;BME280;27638;42.184;24.848;2023-01-27T03:04:47;99008.59;;;3.89;100.00
41947;BME280;27638;42.184;24.848;2023-01-27T03:07:12;98993.69;;;3.89;100.00
41947;BME280;27638;42.184;24.848;2023-01-27T03:09:38;98997.56;;;3.95;100.00
41947;BME280;27638;42.184;24.848;2023-01-27T03:12:03;98998.25;;;3.97;100.00
41947;BME280;27638;42.184;24.848;2023-01-27T03:14:44;98995.06;;;4.03;100.00
41947;BME280;27638;42.184;24.848;2023-01-27T03:17:28;98987.47;;;4.09;100.00
41947;BME280;27638;42.184;24.848;2023-01-27T03:20:12;98986.09;;;4.05;100.00
41947;BME280;27638;42.184;24.848;2023-01-27T03:22:38;98996.72;;;4.04;100.00
41947;BME280;27638;42.184;24.848;2023-01-27T03:25:03;99001.41;;;4.00;100.00
41947;BME280;27638;42.184;24.848;2023-01-27T03:27:29;99013.00;;;4.07;100.00
41947;BME280;27638;42.184;24.848;2023-01-27T03:29:54;99025.69;;;4.12;100.00
41947;BME280;27638;42.184;24.848;2023-01-27T03:32:25;99015.88;;;4.14;100.00
41947;BME280;27638;42.184;24.848;2023-01-27T03:34:51;99013.69;;;4.09;100.00
41947;BME280;27638;42.184;24.848;2023-01-27T03:37:17;99016.56;;;4.16;100.00
41947;BME280;27638;42.184;24.848;2023-01-27T03:40:01;99013.28;;;4.24;100.00
41947;BME280;27638;42.184;24.848;2023-01-27T03:42:46;99013.00;;;4.27;100.00
41947;BME280;27638;42.184;24.848;2023-01-27T03:45:29;99019.34;;;4.34;100.00
41947;BME280;27638;42.184;24.848;2023-01-27T03:48:13;99007.59;;;4.38;100.00
41947;BME280;27638;42.184;24.848;2023-01-27T03:50:42;99007.31;;;4.41;100.00
41947;BME280;27638;42.184;24.848;2023-01-27T03:53:09;99021.13;;;4.43;100.00
41947;BME280;27638;42.184;24.848;2023-01-27T03:55:36;99027.72;;;4.47;100.00
41947;BME280;27638;42.184;24.848;2023-01-27T03:58:02;99035.28;;;4.60;100.00
41947;BME280;27638;42.184;24.848;2023-01-27T04:03:18;99017.31;;;4.74;100.00
41947;BME280;27638;42.184;24.848;2023-01-27T04:06:03;99006.69;;;4.76;100.00
41947;BME280;27638;42.184;24.848;2023-01-27T04:08:48;98994.44;;;4.67;100.00
41947;BME280;27638;42.184;24.848;2023-01-27T04:11:13;98978.72;;;4.57;100.00
41947;BME280;27638;42.184;24.848;2023-01-27T04:14:02;98980.50;;;4.66;100.00
41947;BME280;27638;42.184;24.848;2023-01-27T04:16:28;98981.03;;;4.70;100.00
41947;BME280;27638;42.184;24.848;2023-01-27T04:18:55;98973.03;;;4.71;100.00
41947;BME280;27638;42.184;24.848;2023-01-27T04:21:20;98975.25;;;4.66;100.00
41947;BME280;27638;42.184;24.848;2023-01-27T04:23:46;98981.88;;;4.61;100.00
41947;BME280;27638;42.184;24.848;2023-01-27T04:26:11;98990.59;;;4.52;100.00
41947;BME280;27638;42.184;24.848;2023-01-27T04:28:37;98999.44;;;4.51;100.00
41947;BME280;27638;42.184;24.848;2023-01-27T04:31:02;98994.31;;;4.59;100.00
41947;BME280;27638;42.184;24.848;2023-01-27T04:33:28;98986.41;;;4.68;100.00
41947;BME280;27638;42.184;24.848;2023-01-27T04:35:54;98970.16;;;4.65;100.00
41947;BME280;27638;42.184;24.848;2023-01-27T04:38:19;98976.91;;;4.67;100.00
41947;BME280;27638;42.184;24.848;2023-01-27T04:40:45;98975.94;;;4.68;100.00
41947;BME280;27638;42.184;24.848;2023-01-27T04:43:11;98967.53;;;4.65;100.00
41947;BME280;27638;42.184;24.848;2023-01-27T04:45:36;98969.59;;;4.61;100.00
41947;BME280;27638;42.184;24.848;2023-01-27T04:48:02;98971.94;;;4.64;100.00
41947;BME280;27638;42.184;24.848;2023-01-27T04:50:27;98973.16;;;4.70;100.00
41947;BME280;27638;42.184;24.848;2023-01-27T04:52:52;98964.44;;;4.79;100.00
41947;BME280;27638;42.184;24.848;2023-01-27T04:55:18;98964.16;;;4.82;100.00
41947;BME280;27638;42.184;24.848;2023-01-27T04:57:43;98967.34;;;4.76;100.00
41947;BME280;27638;42.184;24.848;2023-01-27T05:00:10;98972.72;;;4.74;100.00
41947;BME280;27638;42.184;24.848;2023-01-27T05:02:36;98968.06;;;4.68;100.00
41947;BME280;27638;42.184;24.848;2023-01-27T05:05:02;98965.16;;;4.71;100.00
41947;BME280;27638;42.184;24.848;2023-01-27T05:07:30;98965.72;;;4.65;100.00
41947;BME280;27638;42.184;24.848;2023-01-27T05:09:56;98975.69;;;4.62;100.00
41947;BME280;27638;42.184;24.848;2023-01-27T05:12:21;98982.03;;;4.59;100.00
41947;BME280;27638;42.184;24.848;2023-01-27T05:14:47;98987.13;;;4.61;100.00
41947;BME280;27638;42.184;24.848;2023-01-27T05:17:12;98988.50;;;4.65;100.00
41947;BME280;27638;42.184;24.848;2023-01-27T05:19:38;99002.03;;;4.60;100.00
41947;BME280;27638;42.184;24.848;2023-01-27T05:22:03;99010.72;;;4.61;100.00
41947;BME280;27638;42.184;24.848;2023-01-27T05:24:29;99007.13;;;4.71;100.00
41947;BME280;27638;42.184;24.848;2023-01-27T05:26:54;99004.31;;;4.82;100.00
41947;BME280;27638;42.184;24.848;2023-01-27T05:29:20;99004.56;;;4.89;100.00
41947;BME280;27638;42.184;24.848;2023-01-27T05:31:45;99011.03;;;4.95;100.00
41947;BME280;27638;42.184;24.848;2023-01-27T05:34:10;99012.28;;;4.91;100.00
41947;BME280;27638;42.184;24.848;2023-01-27T05:36:36;99011.47;;;4.90;100.00
41947;BME280;27638;42.184;24.848;2023-01-27T05:39:01;99006.09;;;4.82;100.00
41947;BME280;27638;42.184;24.848;2023-01-27T05:41:28;99008.47;;;4.75;100.00
41947;BME280;27638;42.184;24.848;2023-01-27T05:43:57;99003.81;;;4.69;100.00
41947;BME280;27638;42.184;24.848;2023-01-27T05:46:24;99012.91;;;4.75;100.00
41947;BME280;27638;42.184;24.848;2023-01-27T05:48:52;99005.44;;;4.80;100.00
41947;BME280;27638;42.184;24.848;2023-01-27T05:51:20;99009.28;;;4.86;100.00
41947;BME280;27638;42.184;24.848;2023-01-27T05:53:46;99017.97;;;4.86;100.00
41947;BME280;27638;42.184;24.848;2023-01-27T05:56:14;99014.41;;;4.77;100.00
41947;BME280;27638;42.184;24.848;2023-01-27T05:58:40;99010.13;;;4.76;100.00
41947;BME280;27638;42.184;24.848;2023-01-27T06:01:12;99008.63;;;4.74;100.00
41947;BME280;27638;42.184;24.848;2023-01-27T06:03:39;99005.72;;;4.77;100.00
41947;BME280;27638;42.184;24.848;2023-01-27T06:06:06;99001.03;;;4.71;100.00
41947;BME280;27638;42.184;24.848;2023-01-27T06:08:33;98993.06;;;4.63;100.00
41947;BME280;27638;42.184;24.848;2023-01-27T06:10:59;98994.56;;;4.65;100.00
41947;BME280;27638;42.184;24.848;2023-01-27T06:13:24;98982.56;;;4.63;100.00
41947;BME280;27638;42.184;24.848;2023-01-27T06:15:50;98970.03;;;4.57;100.00
41947;BME280;27638;42.184;24.848;2023-01-27T06:18:17;98979.16;;;4.53;100.00
41947;BME280;27638;42.184;24.848;2023-01-27T06:20:43;98985.94;;;4.45;100.00
41947;BME280;27638;42.184;24.848;2023-01-27T06:23:10;98996.41;;;4.45;100.00
41947;BME280;27638;42.184;24.848;2023-01-27T06:25:40;98998.78;;;4.39;100.00
41947;BME280;27638;42.184;24.848;2023-01-27T06:28:07;99001.91;;;4.52;100.00
41947;BME280;27638;42.184;24.848;2023-01-27T06:30:34;99007.81;;;4.64;100.00
41947;BME280;27638;42.184;24.848;2023-01-27T06:33:00;99016.63;;;4.72;100.00
41947;BME280;27638;42.184;24.848;2023-01-27T06:35:26;99016.16;;;4.87;100.00
41947;BME280;27638;42.184;24.848;2023-01-27T06:37:51;99020.28;;;4.99;100.00
41947;BME280;27638;42.184;24.848;2023-01-27T06:40:17;99018.81;;;5.14;100.00
41947;BME280;27638;42.184;24.848;2023-01-27T06:42:43;99006.81;;;5.21;100.00
41947;BME280;27638;42.184;24.848;2023-01-27T06:45:10;99016.81;;;5.35;100.00
41947;BME280;27638;42.184;24.848;2023-01-27T06:47:37;99004.44;;;5.45;99.59
41947;BME280;27638;42.184;24.848;2023-01-27T06:50:03;99004.38;;;5.55;99.71
41947;BME280;27638;42.184;24.848;2023-01-27T06:52:29;99010.03;;;5.60;98.19
41947;BME280;27638;42.184;24.848;2023-01-27T06:54:54;98999.97;;;5.56;98.91
41947;BME280;27638;42.184;24.848;2023-01-27T06:57:20;98994.56;;;5.57;99.17
41947;BME280;27638;42.184;24.848;2023-01-27T06:59:45;99005.91;;;5.58;98.98
41947;BME280;27638;42.184;24.848;2023-01-27T07:02:11;99005.13;;;5.48;99.20
41947;BME280;27638;42.184;24.848;2023-01-27T07:04:37;99008.63;;;5.38;99.68
41947;BME280;27638;42.184;24.848;2023-01-27T07:07:02;99002.13;;;5.42;100.00
41947;BME280;27638;42.184;24.848;2023-01-27T07:09:28;99006.50;;;5.52;99.68
41947;BME280;27638;42.184;24.848;2023-01-27T07:11:53;99009.31;;;5.40;99.95
41947;BME280;27638;42.184;24.848;2023-01-27T07:14:19;99004.06;;;5.40;100.00
41947;BME280;27638;42.184;24.848;2023-01-27T07:16:44;99001.09;;;5.53;100.00
41947;BME280;27638;42.184;24.848;2023-01-27T07:19:10;99002.44;;;5.57;100.00
41947;BME280;27638;42.184;24.848;2023-01-27T07:21:37;99005.81;;;5.50;99.79
41947;BME280;27638;42.184;24.848;2023-01-27T07:24:02;99004.44;;;5.45;100.00
41947;BME280;27638;42.184;24.848;2023-01-27T07:26:28;99007.31;;;5.52;100.00
41947;BME280;27638;42.184;24.848;2023-01-27T07:28:55;99008.22;;;5.61;100.00
41947;BME280;27638;42.184;24.848;2023-01-27T07:31:21;99010.09;;;5.68;100.00
41947;BME280;27638;42.184;24.848;2023-01-27T07:33:46;99010.34;;;5.75;100.00
41947;BME280;27638;42.184;24.848;2023-01-27T07:36:12;99010.50;;;5.73;99.49
41947;BME280;27638;42.184;24.848;2023-01-27T07:38:37;99016.03;;;5.70;99.96
41947;BME280;27638;42.184;24.848;2023-01-27T07:41:06;99012.88;;;5.67;99.88
41947;BME280;27638;42.184;24.848;2023-01-27T07:43:32;99001.69;;;5.65;99.56
41947;BME280;27638;42.184;24.848;2023-01-27T07:45:58;99006.28;;;5.63;100.00
41947;BME280;27638;42.184;24.848;2023-01-27T07:48:24;99000.06;;;5.64;99.88
41947;BME280;27638;42.184;24.848;2023-01-27T07:50:49;99012.50;;;5.62;100.00
41947;BME280;27638;42.184;24.848;2023-01-27T07:53:15;99007.25;;;5.62;100.00
41947;BME280;27638;42.184;24.848;2023-01-27T07:55:40;99002.59;;;5.56;100.00
41947;BME280;27638;42.184;24.848;2023-01-27T07:58:06;98991.84;;;5.49;100.00
41947;BME280;27638;42.184;24.848;2023-01-27T08:00:32;98985.63;;;5.50;100.00
41947;BME280;27638;42.184;24.848;2023-01-27T08:02:58;98984.34;;;5.54;100.00
41947;BME280;27638;42.184;24.848;2023-01-27T08:05:25;98985.56;;;5.60;100.00
41947;BME280;27638;42.184;24.848;2023-01-27T08:07:51;98977.75;;;5.68;100.00
41947;BME280;27638;42.184;24.848;2023-01-27T08:10:18;98978.13;;;5.73;100.00
41947;BME280;27638;42.184;24.848;2023-01-27T08:12:44;98977.63;;;5.69;100.00
41947;BME280;27638;42.184;24.848;2023-01-27T08:15:10;98981.97;;;5.61;100.00
41947;BME280;27638;42.184;24.848;2023-01-27T08:17:35;98983.75;;;5.60;100.00
41947;BME280;27638;42.184;24.848;2023-01-27T08:20:01;98983.31;;;5.65;100.00
41947;BME280;27638;42.184;24.848;2023-01-27T08:22:27;98979.19;;;5.62;100.00
41947;BME280;27638;42.184;24.848;2023-01-27T08:24:53;98986.63;;;5.67;100.00
41947;BME280;27638;42.184;24.848;2023-01-27T08:27:18;98983.47;;;5.63;100.00
41947;BME280;27638;42.184;24.848;2023-01-27T08:29:44;98987.38;;;5.59;100.00
41947;BME280;27638;42.184;24.848;2023-01-27T08:32:10;98977.47;;;5.53;100.00
41947;BME280;27638;42.184;24.848;2023-01-27T08:34:36;98975.66;;;5.54;100.00
41947;BME280;27638;42.184;24.848;2023-01-27T08:37:02;98962.28;;;5.47;100.00
41947;BME280;27638;42.184;24.848;2023-01-27T08:39:28;98958.53;;;5.50;100.00
41947;BME280;27638;42.184;24.848;2023-01-27T08:41:53;98956.16;;;5.56;100.00
41947;BME280;27638;42.184;24.848;2023-01-27T08:44:19;98951.50;;;5.68;100.00
41947;BME280;27638;42.184;24.848;2023-01-27T08:46:45;98953.22;;;5.59;100.00
41947;BME280;27638;42.184;24.848;2023-01-27T08:49:10;98948.41;;;5.72;100.00
41947;BME280;27638;42.184;24.848;2023-01-27T08:51:38;98938.59;;;5.74;100.00
41947;BME280;27638;42.184;24.848;2023-01-27T08:54:05;98926.13;;;5.76;100.00
41947;BME280;27638;42.184;24.848;2023-01-27T08:56:30;98944.00;;;5.91;100.00
41947;BME280;27638;42.184;24.848;2023-01-27T08:58:56;98951.91;;;5.91;100.00
41947;BME280;27638;42.184;24.848;2023-01-27T09:01:21;98951.91;;;5.91;100.00
41947;BME280;27638;42.184;24.848;2023-01-27T09:03:47;98956.59;;;5.87;100.00
41947;BME280;27638;42.184;24.848;2023-01-27T09:06:14;98964.09;;;5.82;100.00
41947;BME280;27638;42.184;24.848;2023-01-27T09:08:40;98967.63;;;5.73;100.00
41947;BME280;27638;42.184;24.848;2023-01-27T09:11:10;98972.81;;;5.65;100.00
41947;BME280;27638;42.184;24.848;2023-01-27T09:13:36;98971.84;;;5.66;100.00
41947;BME280;27638;42.184;24.848;2023-01-27T09:16:01;98970.03;;;5.66;100.00
41947;BME280;27638;42.184;24.848;2023-01-27T09:18:27;98959.75;;;5.73;100.00
41947;BME280;27638;42.184;24.848;2023-01-27T09:20:53;98962.69;;;5.70;100.00
41947;BME280;27638;42.184;24.848;2023-01-27T09:23:18;98955.41;;;5.64;100.00
41947;BME280;27638;42.184;24.848;2023-01-27T09:25:44;98952.09;;;5.62;100.00
41947;BME280;27638;42.184;24.848;2023-01-27T09:28:09;98946.31;;;5.58;100.00
41947;BME280;27638;42.184;24.848;2023-01-27T09:30:42;98939.94;;;5.61;100.00
41947;BME280;27638;42.184;24.848;2023-01-27T09:33:08;98941.06;;;5.58;100.00
41947;BME280;27638;42.184;24.848;2023-01-27T09:35:42;98930.78;;;5.65;100.00
41947;BME280;27638;42.184;24.848;2023-01-27T09:38:10;98934.91;;;5.67;100.00
41947;BME280;27638;42.184;24.848;2023-01-27T09:41:02;98925.22;;;5.68;100.00
41947;BME280;27638;42.184;24.848;2023-01-27T09:52:21;98893.66;;;5.42;100.00
41947;BME280;27638;42.184;24.848;2023-01-27T09:54:59;98895.22;;;5.53;100.00
41947;BME280;27638;42.184;24.848;2023-01-27T10:03:09;98911.66;;;5.72;100.00
41947;BME280;27638;42.184;24.848;2023-01-27T10:16:25;98895.38;;;5.69;100.00
41947;BME280;27638;42.184;24.848;2023-01-27T10:29:24;98868.78;;;5.72;100.00
41947;BME280;27638;42.184;24.848;2023-01-27T10:31:55;98867.81;;;5.73;100.00
41947;BME280;27638;42.184;24.848;2023-01-27T10:34:43;98861.00;;;5.62;100.00
41947;BME280;27638;42.184;24.848;2023-01-27T10:37:22;98857.41;;;5.63;100.00
41947;BME280;27638;42.184;24.848;2023-01-27T10:40:18;98852.50;;;5.68;100.00
41947;BME280;27638;42.184;24.848;2023-01-27T10:43:05;98853.66;;;5.66;100.00
41947;BME280;27638;42.184;24.848;2023-01-27T10:45:57;98854.31;;;5.68;100.00
41947;BME280;27638;42.184;24.848;2023-01-27T10:51:25;98843.34;;;5.72;100.00
41947;BME280;27638;42.184;24.848;2023-01-27T10:54:00;98845.47;;;5.69;100.00
41947;BME280;27638;42.184;24.848;2023-01-27T10:56:44;98836.09;;;5.66;100.00
41947;BME280;27638;42.184;24.848;2023-01-27T11:01:44;98827.38;;;5.66;100.00
41947;BME280;27638;42.184;24.848;2023-01-27T11:04:14;98831.44;;;5.60;100.00
41947;BME280;27638;42.184;24.848;2023-01-27T11:06:43;98829.06;;;5.49;100.00
41947;BME280;27638;42.184;24.848;2023-01-27T11:11:43;98817.75;;;5.74;100.00
41947;BME280;27638;42.184;24.848;2023-01-27T11:14:17;98825.94;;;5.71;100.00
41947;BME280;27638;42.184;24.848;2023-01-27T11:17:16;98815.66;;;5.78;100.00
41947;BME280;27638;42.184;24.848;2023-01-27T11:19:54;98816.91;;;5.92;100.00
41947;BME280;27638;42.184;24.848;2023-01-27T11:28:16;98799.03;;;5.95;100.00
41947;BME280;27638;42.184;24.848;2023-01-27T11:31:03;98798.97;;;6.13;100.00
41947;BME280;27638;42.184;24.848;2023-01-27T11:36:33;98800.75;;;6.38;100.00
41947;BME280;27638;42.184;24.848;2023-01-27T11:38:59;98808.00;;;6.45;100.00
41947;BME280;27638;42.184;24.848;2023-01-27T11:41:31;98803.41;;;6.47;100.00
41947;BME280;27638;42.184;24.848;2023-01-27T11:44:01;98808.34;;;6.50;100.00
41947;BME280;27638;42.184;24.848;2023-01-27T11:46:29;98815.41;;;6.49;100.00
41947;BME280;27638;42.184;24.848;2023-01-27T11:48:57;98812.44;;;6.44;100.00
41947;BME280;27638;42.184;24.848;2023-01-27T11:51:25;98803.25;;;6.48;100.00
41947;BME280;27638;42.184;24.848;2023-01-27T11:54:19;98800.94;;;6.45;100.00
41947;BME280;27638;42.184;24.848;2023-01-27T11:56:48;98806.84;;;6.39;100.00
41947;BME280;27638;42.184;24.848;2023-01-27T11:59:22;98802.91;;;6.43;100.00
41947;BME280;27638;42.184;24.848;2023-01-27T12:05:08;98805.06;;;6.48;100.00
41947;BME280;27638;42.184;24.848;2023-01-27T12:07:54;98802.94;;;6.51;100.00
41947;BME280;27638;42.184;24.848;2023-01-27T12:12:45;98801.47;;;6.57;100.00
41947;BME280;27638;42.184;24.848;2023-01-27T12:15:14;98796.25;;;6.65;100.00
41947;BME280;27638;42.184;24.848;2023-01-27T12:17:42;98786.53;;;6.65;100.00
41947;BME280;27638;42.184;24.848;2023-01-27T12:23:12;98783.28;;;6.71;100.00
41947;BME280;27638;42.184;24.848;2023-01-27T12:25:46;98783.56;;;6.60;100.00
41947;BME280;27638;42.184;24.848;2023-01-27T12:28:35;98771.41;;;6.67;100.00
41947;BME280;27638;42.184;24.848;2023-01-27T12:31:06;98773.03;;;6.60;100.00
41947;BME280;27638;42.184;24.848;2023-01-27T12:33:36;98773.88;;;6.69;100.00
41947;BME280;27638;42.184;24.848;2023-01-27T12:36:16;98777.19;;;6.71;100.00
41947;BME280;27638;42.184;24.848;2023-01-27T12:38:51;98773.72;;;6.62;100.00
41947;BME280;27638;42.184;24.848;2023-01-27T12:41:30;98772.25;;;6.68;100.00
41947;BME280;27638;42.184;24.848;2023-01-27T12:44:15;98775.63;;;6.44;100.00
41947;BME280;27638;42.184;24.848;2023-01-27T12:46:41;98775.16;;;6.49;100.00
41947;BME280;27638;42.184;24.848;2023-01-27T12:49:19;98756.22;;;6.37;100.00
41947;BME280;27638;42.184;24.848;2023-01-27T12:51:54;98760.50;;;6.38;100.00
41947;BME280;27638;42.184;24.848;2023-01-27T12:54:23;98764.56;;;6.32;100.00
41947;BME280;27638;42.184;24.848;2023-01-27T12:56:50;98759.50;;;6.39;100.00
41947;BME280;27638;42.184;24.848;2023-01-27T12:59:18;98764.47;;;6.50;100.00
41947;BME280;27638;42.184;24.848;2023-01-27T13:02:02;98766.31;;;6.58;100.00
41947;BME280;27638;42.184;24.848;2023-01-27T13:04:39;98770.41;;;6.60;100.00
41947;BME280;27638;42.184;24.848;2023-01-27T13:07:12;98775.53;;;6.62;100.00
41947;BME280;27638;42.184;24.848;2023-01-27T13:09:58;98774.69;;;6.61;100.00
41947;BME280;27638;42.184;24.848;2023-01-27T13:12:29;98765.81;;;6.62;100.00
41947;BME280;27638;42.184;24.848;2023-01-27T13:15:04;98761.53;;;6.61;100.00
41947;BME280;27638;42.184;24.848;2023-01-27T13:17:49;98757.94;;;6.62;100.00
41947;BME280;27638;42.184;24.848;2023-01-27T13:20:26;98751.19;;;6.60;100.00
41947;BME280;27638;42.184;24.848;2023-01-27T13:23:12;98753.50;;;6.63;100.00
41947;BME280;27638;42.184;24.848;2023-01-27T13:25:45;98750.84;;;6.55;100.00
41947;BME280;27638;42.184;24.848;2023-01-27T13:28:21;98757.75;;;6.56;100.00
41947;BME280;27638;42.184;24.848;2023-01-27T13:30:50;98763.19;;;6.62;100.00
41947;BME280;27638;42.184;24.848;2023-01-27T13:36:03;98776.19;;;6.72;100.00
41947;BME280;27638;42.184;24.848;2023-01-27T13:41:40;98755.31;;;6.62;100.00
41947;BME280;27638;42.184;24.848;2023-01-27T13:46:53;98755.75;;;6.50;100.00
41947;BME280;27638;42.184;24.848;2023-01-27T13:51:54;98755.59;;;6.51;100.00
41947;BME280;27638;42.184;24.848;2023-01-27T13:54:20;98769.53;;;6.44;100.00
41947;BME280;27638;42.184;24.848;2023-01-27T13:57:10;98769.88;;;6.40;100.00
41947;BME280;27638;42.184;24.848;2023-01-27T14:02:56;98773.84;;;6.53;100.00
41947;BME280;27638;42.184;24.848;2023-01-27T14:11:46;98791.91;;;6.48;100.00
41947;BME280;27638;42.184;24.848;2023-01-27T14:19:50;98799.13;;;6.46;100.00
41947;BME280;27638;42.184;24.848;2023-01-27T14:22:34;98791.22;;;6.37;100.00
41947;BME280;27638;42.184;24.848;2023-01-27T14:31:03;98790.94;;;6.49;100.00
41947;BME280;27638;42.184;24.848;2023-01-27T14:34:06;98791.78;;;6.57;100.00
41947;BME280;27638;42.184;24.848;2023-01-27T14:36:46;98796.88;;;6.59;100.00
41947;BME280;27638;42.184;24.848;2023-01-27T14:39:38;98793.44;;;6.58;100.00
41947;BME280;27638;42.184;24.848;2023-01-27T14:42:12;98783.25;;;6.63;100.00
41947;BME280;27638;42.184;24.848;2023-01-27T14:44:57;98794.22;;;6.51;100.00
41947;BME280;27638;42.184;24.848;2023-01-27T14:47:41;98786.34;;;6.51;100.00
41947;BME280;27638;42.184;24.848;2023-01-27T14:55:29;98796.19;;;6.49;100.00